Time;durP1;ratioP1;P1;durP2;ratioP2;P2;SDS_P1;SDS_P2;PMS_P1;PMS_P2;Temp;Humidity;BMP_temperature;BMP_pressure;BME280_temperature;BME280_humidity;BME280_pressure;Samples;Min_cycle;Max_cycle;Signal;HPM_P1;HPM_P2
2022/12/22 03:27:30;;;;;;;17.17;15.65;;;;;;;8.63;100.00;100079.38;5053787;28;20120;-66
2022/12/22 03:29:55;;;;;;;15.23;13.73;;;;;;;8.61;100.00;100081.25;5060451;28;20032;-66
2022/12/22 03:32:21;;;;;;;14.40;13.10;;;;;;;8.60;100.00;100088.38;5069174;28;20085;-65
2022/12/22 03:34:47;;;;;;;26.27;14.63;;;;;;;8.59;100.00;100080.53;5050314;28;20484;-66
2022/12/22 03:37:12;;;;;;;15.55;14.13;;;;;;;8.55;100.00;100077.22;5034079;28;20044;-66
2022/12/22 03:39:40;;;;;;;39.83;14.30;;;;;;;8.56;100.00;100080.72;5051561;28;20479;-66
2022/12/22 03:47:38;;;;;;;17.85;12.80;;;;;;;8.55;100.00;100071.06;5051533;28;20050;-65
2022/12/22 03:50:04;;;;;;;133.13;13.60;;;;;;;8.56;100.00;100064.81;5034014;28;20119;-65
2022/12/22 03:52:29;;;;;;;19.42;10.55;;;;;;;8.55;100.00;100069.28;5034124;28;20385;-65
2022/12/22 03:54:55;;;;;;;13.18;11.90;;;;;;;8.50;100.00;100063.44;5055364;28;20101;-66
2022/12/22 03:57:23;;;;;;;13.82;12.63;;;;;;;8.55;100.00;100076.38;5061182;28;21060;-65
2022/12/22 03:59:49;;;;;;;76.32;14.02;;;;;;;8.52;100.00;100066.81;5049768;28;20037;-65
2022/12/22 04:02:15;;;;;;;11.70;10.70;;;;;;;8.48;100.00;100068.00;5048663;28;20063;-65
2022/12/22 04:04:41;;;;;;;12.10;11.10;;;;;;;8.50;100.00;100062.56;5045818;28;20395;-66
2022/12/22 04:07:06;;;;;;;18.88;14.23;;;;;;;8.50;100.00;100058.16;5052054;28;20055;-66
2022/12/22 04:09:33;;;;;;;11.48;10.48;;;;;;;8.46;100.00;100051.34;5016881;28;20056;-65
2022/12/22 04:14:44;;;;;;;13.45;12.30;;;;;;;8.44;100.00;100050.59;5050552;28;20056;-65
2022/12/22 04:17:10;;;;;;;12.85;11.75;;;;;;;8.44;100.00;100052.41;5050334;28;20040;-65
2022/12/22 04:19:37;;;;;;;14.40;13.10;;;;;;;8.45;100.00;100048.81;5050226;28;20033;-66
2022/12/22 04:22:03;;;;;;;13.25;11.90;;;;;;;8.45;100.00;100051.47;5035296;28;20049;-65
2022/12/22 04:24:29;;;;;;;14.40;12.35;;;;;;;8.44;100.00;100052.41;5050942;28;20036;-65
2022/12/22 04:26:55;;;;;;;12.40;11.32;;;;;;;8.41;100.00;100045.50;5050357;28;20435;-65
2022/12/22 04:29:20;;;;;;;14.50;13.02;;;;;;;8.43;100.00;100048.91;5049988;28;20037;-65
2022/12/22 04:31:45;;;;;;;12.07;10.98;;;;;;;8.45;100.00;100054.09;5033259;28;20025;-65
2022/12/22 04:34:13;;;;;;;11.82;10.82;;;;;;;8.43;100.00;100062.16;5051128;28;20033;-65
2022/12/22 04:36:39;;;;;;;12.18;10.80;;;;;;;8.41;100.00;100054.31;5052604;28;20373;-65
2022/12/22 04:39:06;;;;;;;11.73;10.73;;;;;;;8.44;100.00;100063.84;5050568;28;20039;-66
2022/12/22 04:41:34;;;;;;;13.52;12.35;;;;;;;8.46;100.00;100064.59;5050294;28;20472;-65
2022/12/22 04:44:06;;;;;;;13.10;11.98;;;;;;;8.45;100.00;100060.25;5050439;28;20500;-65
2022/12/22 04:46:32;;;;;;;13.77;12.50;;;;;;;8.46;100.00;100069.88;5049930;28;20044;-66
2022/12/22 04:48:57;;;;;;;14.23;12.80;;;;;;;8.50;100.00;100070.53;5049461;28;20128;-66
2022/12/22 04:51:23;;;;;;;13.63;12.10;;;;;;;8.50;100.00;100067.88;5033219;28;20028;-65
2022/12/22 04:53:48;;;;;;;16.23;13.00;;;;;;;8.49;100.00;100064.38;5016188;28;20037;-65
2022/12/22 04:56:14;;;;;;;14.27;13.07;;;;;;;8.52;100.00;100069.47;5033321;28;20060;-65
2022/12/22 04:58:39;;;;;;;14.63;13.32;;;;;;;8.50;100.00;100065.22;5050013;28;20119;-66
2022/12/22 05:01:13;;;;;;;15.15;13.68;;;;;;;8.52;100.00;100058.88;5016462;28;20060;-65
2022/12/22 05:03:39;;;;;;;16.17;14.63;;;;;;;8.50;100.00;100052.84;5051086;28;20025;-66
2022/12/22 05:06:05;;;;;;;15.43;14.02;;;;;;;8.49;100.00;100055.59;5044375;28;20392;-66
2022/12/22 05:08:30;;;;;;;16.35;14.75;;;;;;;8.50;100.00;100052.84;5049497;28;20037;-65
2022/12/22 05:10:56;;;;;;;18.05;16.25;;;;;;;8.54;100.00;100056.13;5049421;28;20036;-66
2022/12/22 05:13:21;;;;;;;16.63;15.10;;;;;;;8.51;100.00;100065.13;5049672;28;20033;-65
2022/12/22 05:15:47;;;;;;;16.52;15.02;;;;;;;8.51;100.00;100048.41;5052031;28;20037;-65
2022/12/22 05:18:13;;;;;;;15.40;13.98;;;;;;;8.46;100.00;100054.00;5053804;28;20491;-65
2022/12/22 05:20:39;;;;;;;16.75;15.10;;;;;;;8.46;100.00;100058.44;5053300;28;20028;-65
2022/12/22 05:23:06;;;;;;;18.63;15.10;;;;;;;8.41;100.00;100067.56;5052975;28;20518;-65
2022/12/22 05:25:32;;;;;;;27.90;15.32;;;;;;;8.36;100.00;100068.78;5053513;28;20025;-65
2022/12/22 05:27:58;;;;;;;17.10;14.70;;;;;;;8.30;100.00;100075.34;5054586;28;20383;-66
2022/12/22 05:30:24;;;;;;;16.38;14.55;;;;;;;8.31;100.00;100076.19;5052901;28;20029;-66
2022/12/22 05:32:49;;;;;;;16.63;15.05;;;;;;;8.30;100.00;100075.34;5054576;28;20068;-65
2022/12/22 05:35:16;;;;;;;17.08;14.95;;;;;;;8.31;100.00;100073.53;5053445;28;20035;-66
2022/12/22 05:37:42;;;;;;;15.68;14.07;;;;;;;8.30;100.00;100075.34;5037010;28;20033;-65
2022/12/22 05:40:08;;;;;;;15.57;14.15;;;;;;;8.32;100.00;100083.16;5053795;28;20498;-66
2022/12/22 05:42:36;;;;;;;16.77;15.18;;;;;;;8.33;100.00;100083.09;5052177;28;20094;-66
2022/12/22 05:45:08;;;;;;;15.40;13.90;;;;;;;8.32;100.00;100091.97;5052755;28;20031;-65
2022/12/22 05:47:33;;;;;;;16.60;15.00;;;;;;;8.35;100.00;100082.97;5054547;28;20098;-66
2022/12/22 05:49:59;;;;;;;16.42;14.82;;;;;;;8.36;100.00;100087.34;5053897;28;20503;-65
2022/12/22 05:52:27;;;;;;;16.05;14.35;;;;;;;8.40;100.00;100096.81;5053645;28;20025;-65
2022/12/22 05:54:53;;;;;;;16.58;14.93;;;;;;;8.33;100.00;100084.88;5053471;28;20037;-65
2022/12/22 05:57:18;;;;;;;22.10;15.57;;;;;;;8.38;100.00;100101.31;5035753;28;20048;-65
2022/12/22 05:59:44;;;;;;;16.33;14.73;;;;;;;8.44;100.00;100108.03;5052811;28;20396;-65
2022/12/22 06:02:12;;;;;;;26.33;16.27;;;;;;;8.43;100.00;100120.44;5052236;28;20070;-66
2022/12/22 06:04:37;;;;;;;21.02;15.70;;;;;;;8.41;100.00;100124.97;5053609;28;20041;-66
2022/12/22 06:07:03;;;;;;;27.75;15.30;;;;;;;8.42;100.00;100134.66;5032316;28;20040;-65
2022/12/22 06:09:33;;;;;;;20.85;16.30;;;;;;;8.41;100.00;100144.41;5035200;28;20036;-65
2022/12/22 06:11:59;;;;;;;18.48;14.95;;;;;;;8.42;100.00;100142.59;5053858;28;20029;-66
2022/12/22 06:14:24;;;;;;;22.70;16.17;;;;;;;8.41;100.00;100143.53;5058445;28;20106;-66
2022/12/22 06:16:50;;;;;;;18.38;15.68;;;;;;;8.40;100.00;100148.00;5053460;28;20123;-64
2022/12/22 06:19:17;;;;;;;20.08;16.48;;;;;;;8.43;100.00;100146.94;5052778;28;20036;-65
2022/12/22 06:21:43;;;;;;;19.85;17.55;;;;;;;8.43;100.00;100156.69;5053031;28;20160;-65
2022/12/22 06:24:09;;;;;;;20.13;17.77;;;;;;;8.44;100.00;100163.69;5052917;28;20116;-65
2022/12/22 06:26:35;;;;;;;26.13;19.70;;;;;;;8.41;100.00;100162.06;5051246;28;20036;-65
2022/12/22 06:29:01;;;;;;;23.60;19.13;;;;;;;8.43;100.00;100169.94;5053657;28;20476;-66
2022/12/22 06:31:26;;;;;;;30.45;22.63;;;;;;;8.41;100.00;100173.56;5052121;28;20040;-65
2022/12/22 06:33:51;;;;;;;30.55;23.83;;;;;;;8.45;100.00;100178.66;5051778;28;20498;-66
2022/12/22 06:36:17;;;;;;;38.67;26.90;;;;;;;8.40;100.00;100168.34;5051720;28;20048;-65
2022/12/22 06:38:42;;;;;;;37.10;27.60;;;;;;;8.44;100.00;100185.72;5067551;28;20036;-65
2022/12/22 06:41:08;;;;;;;44.90;30.55;;;;;;;8.45;100.00;100192.75;5051356;28;20424;-66
2022/12/22 06:43:33;;;;;;;44.03;30.60;;;;;;;8.45;100.00;100194.56;5049942;28;20116;-66
2022/12/22 06:45:59;;;;;;;49.08;32.10;;;;;;;8.45;100.00;100186.59;5047020;28;20493;-67
2022/12/22 06:48:24;;;;;;;52.92;34.30;;;;;;;8.40;100.00;100184.25;5051726;28;20029;-65
2022/12/22 06:50:52;;;;;;;56.42;32.22;;;;;;;8.44;100.00;100198.13;5063143;28;20093;-66
2022/12/22 06:53:17;;;;;;;54.83;32.97;;;;;;;8.49;100.00;100206.66;5051041;28;20036;-66
2022/12/22 06:55:46;;;;;;;58.20;33.78;;;;;;;8.49;100.00;100210.13;5034764;28;20043;-65
2022/12/22 06:58:12;;;;;;;61.15;33.97;;;;;;;8.48;100.00;100213.75;5052959;28;20036;-66
2022/12/22 07:00:38;;;;;;;55.53;32.67;;;;;;;8.52;100.00;100215.25;5051333;28;20116;-66
2022/12/22 07:03:03;;;;;;;56.30;32.55;;;;;;;8.51;100.00;100220.66;5051571;28;20037;-65
2022/12/22 07:05:30;;;;;;;55.55;32.38;;;;;;;8.51;100.00;100225.97;5052410;28;20500;-65
2022/12/22 07:07:58;;;;;;;59.25;33.63;;;;;;;8.50;100.00;100241.00;5050364;28;20029;-65
2022/12/22 07:10:56;;;;;;;53.45;31.70;;;;;;;8.48;100.00;100250.00;5052600;28;20021;-66
2022/12/22 07:13:18;;;;;;;53.60;31.08;;;;;;;8.48;100.00;100257.97;5055593;28;20044;-65
2022/12/22 07:15:44;;;;;;;55.42;31.73;;;;;;;8.48;100.00;100263.25;5053897;28;20060;-66
2022/12/22 07:18:10;;;;;;;57.85;32.88;;;;;;;8.46;100.00;100262.50;5068937;28;20032;-65
2022/12/22 07:20:38;;;;;;;53.38;31.67;;;;;;;8.45;100.00;100264.31;5057140;28;20462;-66
2022/12/22 07:23:04;;;;;;;54.95;32.45;;;;;;;8.44;100.00;100257.28;5050043;28;20045;-66
2022/12/22 07:25:29;;;;;;;51.90;31.90;;;;;;;8.44;100.00;100257.28;5051562;28;20062;-66
2022/12/22 07:27:57;;;;;;;51.15;32.15;;;;;;;8.42;100.00;100259.19;5047408;28;20387;-66
2022/12/22 07:30:25;;;;;;;51.85;31.25;;;;;;;8.37;100.00;100253.28;5071284;28;20033;-66
2022/12/22 07:32:51;;;;;;;52.15;31.85;;;;;;;8.36;100.00;100257.75;5066145;28;20472;-65
2022/12/22 07:35:16;;;;;;;61.05;34.17;;;;;;;8.31;100.00;100261.63;5052169;28;20040;-65
2022/12/22 07:37:44;;;;;;;50.03;32.67;;;;;;;8.25;100.00;100257.56;5032787;28;20510;-65
2022/12/22 07:40:14;;;;;;;53.95;34.03;;;;;;;8.28;100.00;100269.78;5049737;28;20037;-66
2022/12/22 07:42:48;;;;;;;58.97;34.58;;;;;;;8.26;100.00;100272.50;5050239;28;20029;-66
2022/12/22 07:45:16;;;;;;;51.60;33.58;;;;;;;8.25;100.00;100285.88;5050690;28;20111;-66
2022/12/22 07:47:41;;;;;;;58.90;35.20;;;;;;;8.23;100.00;100291.25;5050524;28;20029;-66
2022/12/22 07:50:31;;;;;;;56.47;34.95;;;;;;;8.24;100.00;100297.41;5051021;28;20396;-66
2022/12/22 07:53:04;;;;;;;58.95;35.33;;;;;;;8.23;100.00;100299.19;5051780;28;20025;-66
2022/12/22 07:55:34;;;;;;;62.53;36.88;;;;;;;8.23;100.00;100301.84;5051082;28;20028;-66
2022/12/22 07:57:59;;;;;;;63.00;36.30;;;;;;;8.27;100.00;100319.28;5050514;28;20036;-66
2022/12/22 08:00:25;;;;;;;66.00;38.25;;;;;;;8.18;100.00;100326.00;5050550;28;20036;-66
2022/12/22 08:02:59;;;;;;;66.32;40.28;;;;;;;8.22;100.00;100347.00;5050212;28;20064;-66
2022/12/22 08:05:25;;;;;;;73.55;39.45;;;;;;;8.18;100.00;100348.97;5049822;28;20480;-65
2022/12/22 08:07:52;;;;;;;74.18;40.20;;;;;;;8.18;100.00;100352.47;5047161;28;20051;-65
2022/12/22 08:10:20;;;;;;;74.45;41.67;;;;;;;8.16;100.00;100354.34;5050464;28;20079;-66
2022/12/22 08:12:46;;;;;;;71.55;40.97;;;;;;;8.15;100.00;100367.72;5051712;28;20448;-65
2022/12/22 08:15:14;;;;;;;70.57;39.50;;;;;;;8.15;100.00;100360.59;5050177;28;20033;-65
2022/12/22 08:17:39;;;;;;;74.63;39.65;;;;;;;8.09;100.00;100357.47;5033800;28;20045;-66
2022/12/22 08:20:05;;;;;;;68.22;38.80;;;;;;;8.17;100.00;100366.66;5051710;28;20501;-65
2022/12/22 08:22:31;;;;;;;64.88;38.15;;;;;;;8.20;100.00;100368.25;5050783;28;20064;-66
2022/12/22 08:24:59;;;;;;;73.47;38.95;;;;;;;8.22;100.00;100376.97;5033397;28;20120;-65
2022/12/22 08:27:42;;;;;;;68.85;38.97;;;;;;;8.23;100.00;100370.72;5051187;28;20025;-66
2022/12/22 08:30:09;;;;;;;68.45;38.55;;;;;;;8.20;100.00;100371.75;5051386;28;20048;-66
2022/12/22 08:32:37;;;;;;;65.10;37.03;;;;;;;8.24;100.00;100379.53;5051245;28;20058;-65
2022/12/22 08:35:04;;;;;;;59.97;37.55;;;;;;;8.14;100.00;100389.81;5032569;28;20021;-66
2022/12/22 08:37:33;;;;;;;58.08;34.67;;;;;;;8.20;100.00;100402.69;5051002;28;20025;-65
2022/12/22 08:40:03;;;;;;;53.60;33.47;;;;;;;8.19;100.00;100409.78;5049269;28;20024;-66
2022/12/22 08:42:32;;;;;;;53.65;33.55;;;;;;;8.22;100.00;100422.00;5042655;28;20036;-66
2022/12/22 08:44:57;;;;;;;58.92;34.55;;;;;;;8.22;100.00;100422.00;5050290;28;20033;-66
2022/12/22 08:47:23;;;;;;;55.38;33.83;;;;;;;8.22;100.00;100434.41;5046612;28;20384;-66
2022/12/22 08:49:49;;;;;;;61.00;36.10;;;;;;;8.22;100.00;100445.00;5051284;28;20044;-66
2022/12/22 08:52:15;;;;;;;56.80;35.00;;;;;;;8.17;100.00;100448.75;5053118;28;20029;-65
2022/12/22 08:54:41;;;;;;;59.90;36.38;;;;;;;8.24;100.00;100462.53;5045896;28;20183;-66
2022/12/22 08:57:06;;;;;;;65.28;37.92;;;;;;;8.28;100.00;100458.72;5047520;28;20119;-66
2022/12/22 08:59:32;;;;;;;62.50;37.30;;;;;;;8.26;100.00;100454.47;5053972;28;20040;-66
2022/12/22 09:02:03;;;;;;;60.17;36.97;;;;;;;8.24;100.00;100459.88;5051284;28;20057;-65
2022/12/22 09:04:31;;;;;;;65.53;37.47;;;;;;;8.16;100.00;100457.66;5054891;28;20095;-65
2022/12/22 09:06:56;;;;;;;53.00;32.90;;;;;;;8.05;100.00;100457.44;5055019;28;20024;-65
2022/12/22 09:09:22;;;;;;;57.03;35.17;;;;;;;8.08;100.00;100477.59;5054659;28;20029;-66
2022/12/22 09:11:48;;;;;;;56.33;34.78;;;;;;;8.02;100.00;100478.81;5033383;28;20029;-65
2022/12/22 09:14:13;;;;;;;57.83;33.78;;;;;;;7.99;100.00;100468.38;5043109;28;20037;-65
2022/12/22 09:16:39;;;;;;;63.42;36.15;;;;;;;8.03;100.00;100471.72;5054524;28;20044;-66
2022/12/22 09:19:06;;;;;;;54.63;34.10;;;;;;;7.99;100.00;100471.03;5053468;28;20029;-66
2022/12/22 09:21:32;;;;;;;60.28;35.50;;;;;;;7.96;100.00;100476.53;5054466;28;20052;-65
2022/12/22 09:23:58;;;;;;;58.70;35.63;;;;;;;7.96;100.00;100484.47;5052965;28;20534;-65
2022/12/22 09:26:25;;;;;;;64.68;35.88;;;;;;;8.00;100.00;100490.44;5053562;28;20025;-66
2022/12/22 09:28:51;;;;;;;63.40;35.75;;;;;;;7.99;100.00;100489.56;5054269;28;20403;-65
2022/12/22 09:31:18;;;;;;;58.90;35.70;;;;;;;7.97;100.00;100488.81;5054598;28;20024;-65
2022/12/22 09:33:44;;;;;;;59.58;35.20;;;;;;;8.06;100.00;100493.59;5054559;28;20551;-66
2022/12/22 09:36:12;;;;;;;60.30;35.08;;;;;;;8.12;100.00;100493.22;5053110;28;20123;-65
2022/12/22 09:38:39;;;;;;;60.15;37.53;;;;;;;8.10;100.00;100486.31;5052474;28;20037;-65
2022/12/22 09:41:09;;;;;;;60.78;37.08;;;;;;;8.18;100.00;100503.47;5054391;28;20098;-64
2022/12/22 09:43:35;;;;;;;;;;;;;;;8.34;100.00;100497.25;5054815;28;20029;-66
2022/12/22 09:46:00;;;;;;;59.42;37.42;;;;;;;8.30;100.00;100512.50;5052874;28;19935;-66
2022/12/22 09:48:36;;;;;;;61.25;37.00;;;;;;;8.30;100.00;100517.78;5036344;28;20510;-66
2022/12/22 09:51:03;;;;;;;62.75;39.20;;;;;;;8.29;100.00;100520.50;5052724;28;20020;-66
2022/12/22 09:53:30;;;;;;;60.53;39.65;;;;;;;8.16;100.00;100515.09;5053583;28;20024;-66
2022/12/22 09:55:56;;;;;;;59.67;39.15;;;;;;;8.19;100.00;100525.50;5053479;28;20021;-65
2022/12/22 09:58:31;;;;;;;58.08;36.83;;;;;;;8.18;100.00;100524.66;5052365;28;20079;-66
2022/12/22 10:01:19;;;;;;;59.08;39.13;;;;;;;8.19;100.00;100531.66;5053695;28;20074;-64
2022/12/22 10:03:55;;;;;;;55.90;36.78;;;;;;;8.21;100.00;100531.56;5042682;28;20040;-64
2022/12/22 10:06:53;;;;;;;57.75;36.65;;;;;;;8.23;100.00;100532.31;5053404;28;20056;-65
2022/12/22 10:09:27;;;;;;;56.40;35.72;;;;;;;8.23;100.00;100532.31;5042928;28;20063;-64
2022/12/22 10:12:01;;;;;;;54.17;35.00;;;;;;;8.24;100.00;100541.16;5053575;28;20037;-65
2022/12/22 10:14:47;;;;;;;50.08;31.27;;;;;;;8.39;100.00;100553.53;5052555;28;20028;-66
2022/12/22 10:17:17;;;;;;;50.03;32.03;;;;;;;8.33;100.00;100556.50;5053578;28;20047;-65
2022/12/22 10:19:43;;;;;;;40.72;27.95;;;;;;;8.41;100.00;100554.25;5052369;28;20025;-66
2022/12/22 10:22:32;;;;;;;45.97;26.30;;;;;;;8.48;100.00;100552.97;5053563;28;20045;-66
2022/12/22 10:25:02;;;;;;;33.65;23.27;;;;;;;8.37;100.00;100540.31;5052623;28;20513;-65
2022/12/22 10:27:33;;;;;;;36.15;22.90;;;;;;;8.34;100.00;100550.25;5051888;28;20441;-66
2022/12/22 10:30:22;;;;;;;37.55;23.00;;;;;;;8.32;100.00;100550.31;5053467;28;20032;-65
2022/12/22 10:33:06;;;;;;;33.38;22.15;;;;;;;8.34;100.00;100553.75;5053083;28;20013;-65
2022/12/22 10:35:52;;;;;;;34.03;21.65;;;;;;;8.38;100.00;100557.97;5053580;28;20029;-64
2022/12/22 10:38:38;;;;;;;36.67;23.75;;;;;;;8.39;100.00;100559.66;5052583;28;20380;-63
2022/12/22 10:41:22;;;;;;;37.10;22.67;;;;;;;8.48;100.00;100547.69;5052414;28;20021;-65
2022/12/22 10:43:51;;;;;;;35.50;22.65;;;;;;;8.68;100.00;100554.44;5053296;28;20027;-64
2022/12/22 10:46:19;;;;;;;31.38;21.15;;;;;;;8.91;100.00;100554.84;5052143;28;20021;-64
2022/12/22 10:48:45;;;;;;;32.63;22.60;;;;;;;8.96;100.00;100552.78;5052489;28;20028;-64
2022/12/22 10:51:13;;;;;;;33.80;21.55;;;;;;;8.96;100.00;100558.06;5051930;28;20055;-65
2022/12/22 10:53:44;;;;;;;35.90;21.25;;;;;;;9.03;100.00;100557.63;5052738;28;20036;-65
2022/12/22 10:56:24;;;;;;;30.45;20.98;;;;;;;9.25;100.00;100566.91;5052539;28;20025;-65
2022/12/22 10:59:00;;;;;;;31.48;19.95;;;;;;;9.23;100.00;100572.28;5054153;28;20040;-64
2022/12/22 11:01:31;;;;;;;26.77;17.33;;;;;;;9.33;100.00;100570.78;5051579;28;20112;-66
2022/12/22 11:04:13;;;;;;;25.50;16.55;;;;;;;9.20;100.00;100575.13;5052581;28;20028;-65
2022/12/22 11:06:40;;;;;;;28.38;17.00;;;;;;;9.14;100.00;100572.84;5056120;28;20021;-64
2022/12/22 11:09:10;;;;;;;31.70;18.20;;;;;;;9.16;100.00;100578.94;5052389;28;20881;-64
2022/12/22 11:11:44;;;;;;;31.63;19.05;;;;;;;9.26;100.00;100577.41;5051264;28;20028;-65
2022/12/22 11:14:17;;;;;;;29.55;20.95;;;;;;;9.36;100.00;100579.50;5052215;28;20531;-65
2022/12/22 11:17:05;;;;;;;33.10;23.25;;;;;;;9.30;100.00;100580.75;5051018;28;20039;-65
2022/12/22 11:19:46;;;;;;;32.00;24.67;;;;;;;9.17;100.00;100585.09;5042933;28;20024;-65
2022/12/22 11:22:47;;;;;;;37.08;25.85;;;;;;;9.31;99.35;100585.94;5050019;28;20057;-64
2022/12/22 11:25:21;;;;;;;36.85;25.88;;;;;;;9.32;98.19;100582.34;5051729;28;20044;-65
2022/12/22 11:28:11;;;;;;;34.67;26.15;;;;;;;9.31;99.75;100585.94;5052007;28;20113;-64
2022/12/22 11:30:58;;;;;;;34.80;27.00;;;;;;;9.23;98.52;100590.00;5052459;28;20043;-66
2022/12/22 11:33:43;;;;;;;35.13;27.65;;;;;;;9.18;99.28;100586.81;5051605;28;20066;-65
2022/12/22 11:36:21;;;;;;;35.42;27.58;;;;;;;9.04;100.00;100591.16;5048631;28;20048;-66
2022/12/22 11:38:56;;;;;;;37.33;28.95;;;;;;;9.02;100.00;100595.69;5031179;28;20039;-66
2022/12/22 11:41:32;;;;;;;37.78;28.15;;;;;;;9.12;100.00;100593.34;5054170;28;20024;-66
2022/12/22 11:44:36;;;;;;;38.63;26.27;;;;;;;9.14;99.88;100595.88;5071072;28;20036;-65
2022/12/22 11:47:27;;;;;;;41.72;28.98;;;;;;;9.21;100.00;100597.22;5065395;28;20093;-65
2022/12/22 11:50:26;;;;;;;38.53;27.92;;;;;;;9.17;98.43;100601.00;5042982;28;20024;-66
2022/12/22 11:53:14;;;;;;;38.17;27.00;;;;;;;9.03;98.33;100596.53;5072003;28;20036;-65
2022/12/22 11:55:49;;;;;;;38.20;28.25;;;;;;;8.96;98.41;100597.84;5071878;28;20294;-65
2022/12/22 11:58:14;;;;;;;39.42;28.35;;;;;;;8.86;98.70;100601.06;5071911;28;20028;-65
2022/12/22 12:00:47;;;;;;;34.03;24.92;;;;;;;8.82;97.35;100606.63;5062938;28;20498;-65
2022/12/22 12:03:31;;;;;;;27.33;21.63;;;;;;;8.92;96.42;100591.03;5050501;28;20036;-65
2022/12/22 12:05:56;;;;;;;29.10;21.77;;;;;;;8.87;97.80;100578.03;5030515;28;20041;-66
2022/12/22 12:08:37;;;;;;;26.35;20.08;;;;;;;8.86;97.25;100579.84;5050398;28;20035;-64
2022/12/22 12:11:16;;;;;;;27.45;21.63;;;;;;;8.77;97.21;100582.22;5068144;28;20040;-65
2022/12/22 12:13:58;;;;;;;25.40;20.23;;;;;;;8.71;96.56;100580.78;5051835;28;20451;-65
2022/12/22 12:16:26;;;;;;;27.00;20.90;;;;;;;8.68;98.25;100575.66;5051208;28;20082;-65
2022/12/22 12:19:03;;;;;;;28.13;21.42;;;;;;;8.75;98.36;100563.72;5059334;28;20049;-64
2022/12/22 12:21:45;;;;;;;26.83;21.30;;;;;;;8.74;98.58;100550.56;5071389;28;20431;-64
2022/12/22 12:24:13;;;;;;;27.38;21.05;;;;;;;8.82;98.91;100550.94;5069345;28;20036;-65
2022/12/22 12:26:57;;;;;;;26.67;20.42;;;;;;;8.89;98.38;100547.00;5061893;28;20017;-65
2022/12/22 12:29:32;;;;;;;26.08;18.65;;;;;;;8.84;96.54;100544.59;5048494;28;20086;-66
2022/12/22 12:32:10;;;;;;;26.05;20.40;;;;;;;8.85;97.24;100541.03;5047631;28;20017;-65
2022/12/22 12:34:43;;;;;;;23.25;19.67;;;;;;;8.86;98.12;100539.22;5046409;28;20119;-66
2022/12/22 12:37:30;;;;;;;25.58;20.10;;;;;;;8.90;98.09;100542.53;5052638;28;20033;-64
2022/12/22 12:40:01;;;;;;;23.67;19.58;;;;;;;9.07;97.67;100537.91;5048876;28;20048;-64
2022/12/22 12:42:32;;;;;;;23.45;18.67;;;;;;;9.10;97.87;100535.06;5054224;28;20017;-66
2022/12/22 12:44:59;;;;;;;23.55;19.40;;;;;;;9.05;97.69;100538.94;5054262;28;20025;-64
2022/12/22 12:47:31;;;;;;;28.90;20.95;;;;;;;9.06;97.66;100545.97;5049501;28;20427;-65
2022/12/22 12:49:57;;;;;;;23.83;19.48;;;;;;;8.97;98.11;100542.09;5049401;28;20439;-66
2022/12/22 12:52:38;;;;;;;28.02;21.15;;;;;;;9.03;97.76;100541.69;5063009;28;20137;-66
2022/12/22 12:55:22;;;;;;;27.27;22.05;;;;;;;9.11;98.32;100541.22;5053471;28;20480;-66
2022/12/22 12:57:51;;;;;;;28.60;22.23;;;;;;;9.05;98.15;100537.13;5050312;28;20045;-66
2022/12/22 13:00:34;;;;;;;26.50;22.98;;;;;;;9.14;97.70;100533.06;5048805;28;20033;-66
2022/12/22 13:03:10;;;;;;;27.67;23.88;;;;;;;9.13;97.76;100534.00;5060344;28;20406;-66
2022/12/22 13:05:50;;;;;;;29.60;23.45;;;;;;;9.14;98.03;100526.91;5053102;28;20017;-66
2022/12/22 13:08:22;;;;;;;33.10;25.20;;;;;;;9.06;97.38;100538.00;5049982;28;20724;-64
2022/12/22 13:10:47;;;;;;;33.53;25.63;;;;;;;9.03;98.85;100539.03;5050183;28;20061;-66
2022/12/22 13:13:21;;;;;;;30.15;25.27;;;;;;;9.02;98.42;100539.13;5050280;28;20057;-65
2022/12/22 13:16:09;;;;;;;30.35;24.80;;;;;;;8.99;99.05;100537.50;5051958;28;20381;-66
2022/12/22 13:18:41;;;;;;;32.63;25.92;;;;;;;8.89;99.49;100538.19;5043450;28;20037;-65
2022/12/22 13:21:15;;;;;;;35.92;26.40;;;;;;;8.86;100.00;100536.56;5044396;28;20098;-64
2022/12/22 13:23:44;;;;;;;30.88;23.38;;;;;;;8.81;98.91;100534.19;5046133;28;20052;-66
2022/12/22 13:26:12;;;;;;;29.70;22.55;;;;;;;8.78;98.42;100541.47;5067789;28;20028;-65
2022/12/22 13:28:45;;;;;;;24.35;20.58;;;;;;;8.76;96.56;100551.31;5062270;28;20041;-65
2022/12/22 13:31:21;;;;;;;24.95;18.50;;;;;;;8.72;96.02;100539.19;5048981;28;20594;-64
2022/12/22 13:33:59;;;;;;;22.83;16.73;;;;;;;8.71;95.33;100533.06;5055118;28;20025;-65
2022/12/22 13:36:27;;;;;;;22.88;17.52;;;;;;;8.68;96.75;100533.25;5035199;28;20029;-65
2022/12/22 13:39:19;;;;;;;19.45;16.48;;;;;;;8.74;97.08;100526.72;5051452;28;20028;-64
2022/12/22 13:41:48;;;;;;;21.15;17.15;;;;;;;8.70;95.99;100523.38;5053289;28;20049;-65
2022/12/22 13:44:20;;;;;;;23.67;16.85;;;;;;;8.76;95.24;100515.03;5053425;28;20029;-64
2022/12/22 13:46:45;;;;;;;20.08;16.00;;;;;;;8.71;95.26;100513.66;5054659;28;20017;-64
2022/12/22 13:49:18;;;;;;;18.50;16.58;;;;;;;8.69;95.94;100505.78;5053696;28;20411;-66
2022/12/22 13:51:46;;;;;;;21.08;16.20;;;;;;;8.69;97.12;100511.06;5052692;28;20033;-64
2022/12/22 13:54:30;;;;;;;18.58;16.65;;;;;;;8.75;97.01;100501.91;5054073;28;20029;-66
2022/12/22 13:56:57;;;;;;;21.95;16.52;;;;;;;8.70;96.96;100507.47;5053896;28;20017;-66
2022/12/22 13:59:38;;;;;;;21.00;16.95;;;;;;;8.67;96.81;100507.66;5054085;28;20531;-64
2022/12/22 14:02:10;;;;;;;20.63;17.27;;;;;;;8.64;96.18;100497.25;5053661;28;20389;-65
2022/12/22 14:04:37;;;;;;;21.02;16.65;;;;;;;8.67;96.08;100494.41;5054026;28;20017;-65
2022/12/22 14:07:12;;;;;;;21.85;18.48;;;;;;;8.64;97.28;100486.63;5053805;28;20440;-66
2022/12/22 14:09:46;;;;;;;22.40;16.25;;;;;;;8.62;97.39;100478.78;5053135;28;20029;-66
2022/12/22 14:12:16;;;;;;;18.38;15.35;;;;;;;8.60;96.91;100490.44;5053660;28;20025;-66
2022/12/22 14:14:44;;;;;;;19.17;14.98;;;;;;;8.57;97.31;100482.66;5069090;28;20029;-65
2022/12/22 14:17:18;;;;;;;19.63;15.15;;;;;;;8.56;99.04;100486.25;5053599;28;20043;-66
2022/12/22 14:19:49;;;;;;;16.55;14.15;;;;;;;8.55;98.03;100481.91;5053355;28;20032;-64
2022/12/22 14:22:19;;;;;;;15.60;13.70;;;;;;;8.53;98.70;100470.53;5053798;28;20106;-64
2022/12/22 14:24:53;;;;;;;21.27;14.93;;;;;;;8.57;98.78;100472.06;5053360;28;20037;-65
2022/12/22 14:27:40;;;;;;;16.90;14.02;;;;;;;8.57;98.19;100464.94;5053550;28;20560;-66
2022/12/22 14:30:15;;;;;;;16.60;14.30;;;;;;;8.50;99.59;100473.34;5053125;28;20554;-65
2022/12/22 14:32:48;;;;;;;16.60;14.20;;;;;;;8.49;100.00;100466.38;5052138;28;20431;-65
2022/12/22 14:35:26;;;;;;;16.98;14.15;;;;;;;8.43;100.00;100458.78;5053609;28;20036;-64
2022/12/22 14:38:06;;;;;;;17.85;13.90;;;;;;;8.36;100.00;100455.63;5053392;28;20494;-66
2022/12/22 14:40:36;;;;;;;17.60;14.30;;;;;;;8.37;100.00;100449.38;5052695;28;20032;-65
2022/12/22 14:43:06;;;;;;;17.50;15.57;;;;;;;8.35;100.00;100444.19;5053236;28;20455;-64
2022/12/22 14:45:32;;;;;;;18.70;14.95;;;;;;;8.32;100.00;100440.84;5053499;28;20392;-65
2022/12/22 14:48:00;;;;;;;15.32;13.57;;;;;;;8.26;100.00;100441.22;5052404;28;20036;-65
2022/12/22 14:50:27;;;;;;;16.02;14.35;;;;;;;8.24;100.00;100438.69;5035147;28;20075;-65
2022/12/22 14:52:58;;;;;;;18.23;13.98;;;;;;;8.19;100.00;100435.44;5052959;28;20036;-65
2022/12/22 14:55:26;;;;;;;17.15;13.13;;;;;;;8.23;100.00;100436.09;5053069;28;20035;-65
2022/12/22 14:58:19;;;;;;;16.45;14.82;;;;;;;8.24;100.00;100433.38;5052976;28;20031;-64
2022/12/22 15:01:27;;;;;;;17.65;14.48;;;;;;;8.25;100.00;100431.56;5047447;28;20044;-65
2022/12/22 15:03:57;;;;;;;19.70;14.95;;;;;;;8.19;100.00;100430.13;5033809;28;20025;-66